sensor_id;sensor_type;location;lat;lon;timestamp;temperature;humidity
16666;DHT22;8446;50.998;6.250;2023-07-09T00:01:51;19.60;97.00
16666;DHT22;8446;50.998;6.250;2023-07-09T00:04:18;19.60;96.90
16666;DHT22;8446;50.998;6.250;2023-07-09T00:06:45;19.50;96.90
16666;DHT22;8446;50.998;6.250;2023-07-09T00:09:13;19.40;97.20
16666;DHT22;8446;50.998;6.250;2023-07-09T00:11:41;19.40;97.00
16666;DHT22;8446;50.998;6.250;2023-07-09T00:14:08;19.40;97.10
16666;DHT22;8446;50.998;6.250;2023-07-09T00:16:35;19.50;96.50
16666;DHT22;8446;50.998;6.250;2023-07-09T00:19:03;19.30;97.40
16666;DHT22;8446;50.998;6.250;2023-07-09T00:21:30;19.30;97.20
16666;DHT22;8446;50.998;6.250;2023-07-09T00:23:59;19.50;96.80
16666;DHT22;8446;50.998;6.250;2023-07-09T00:26:30;19.50;96.80
16666;DHT22;8446;50.998;6.250;2023-07-09T00:28:57;19.70;96.60
16666;DHT22;8446;50.998;6.250;2023-07-09T00:31:24;19.60;96.70
16666;DHT22;8446;50.998;6.250;2023-07-09T00:33:51;19.50;97.20
16666;DHT22;8446;50.998;6.250;2023-07-09T00:36:25;19.40;97.30
16666;DHT22;8446;50.998;6.250;2023-07-09T00:38:52;19.40;97.20
16666;DHT22;8446;50.998;6.250;2023-07-09T00:41:21;19.50;96.90
16666;DHT22;8446;50.998;6.250;2023-07-09T00:43:50;19.40;97.20
16666;DHT22;8446;50.998;6.250;2023-07-09T00:49:28;19.40;97.10
16666;DHT22;8446;50.998;6.250;2023-07-09T00:52:00;19.30;97.10
16666;DHT22;8446;50.998;6.250;2023-07-09T00:54:31;19.20;97.20
16666;DHT22;8446;50.998;6.250;2023-07-09T00:57:05;19.40;97.20
16666;DHT22;8446;50.998;6.250;2023-07-09T00:59:33;19.30;97.00
16666;DHT22;8446;50.998;6.250;2023-07-09T01:02:00;19.20;97.20
16666;DHT22;8446;50.998;6.250;2023-07-09T01:04:28;19.20;97.60
16666;DHT22;8446;50.998;6.250;2023-07-09T01:06:57;19.30;97.50
16666;DHT22;8446;50.998;6.250;2023-07-09T01:09:25;19.10;97.50
16666;DHT22;8446;50.998;6.250;2023-07-09T01:11:52;19.10;97.20
16666;DHT22;8446;50.998;6.250;2023-07-09T01:14:23;18.90;97.60
16666;DHT22;8446;50.998;6.250;2023-07-09T01:16:54;18.90;97.70
16666;DHT22;8446;50.998;6.250;2023-07-09T01:19:25;19.00;97.30
16666;DHT22;8446;50.998;6.250;2023-07-09T01:21:55;19.00;97.60
16666;DHT22;8446;50.998;6.250;2023-07-09T01:24:47;19.10;97.10
16666;DHT22;8446;50.998;6.250;2023-07-09T01:27:14;18.90;97.50
16666;DHT22;8446;50.998;6.250;2023-07-09T01:29:42;18.90;98.00
16666;DHT22;8446;50.998;6.250;2023-07-09T01:32:13;18.70;97.70
16666;DHT22;8446;50.998;6.250;2023-07-09T01:34:40;18.60;98.20
16666;DHT22;8446;50.998;6.250;2023-07-09T01:37:09;18.60;98.00
16666;DHT22;8446;50.998;6.250;2023-07-09T01:39:35;18.50;98.30
16666;DHT22;8446;50.998;6.250;2023-07-09T01:42:02;18.40;98.40
16666;DHT22;8446;50.998;6.250;2023-07-09T01:44:34;18.30;98.60
16666;DHT22;8446;50.998;6.250;2023-07-09T01:47:01;18.40;98.60
16666;DHT22;8446;50.998;6.250;2023-07-09T01:49:29;18.40;98.40
16666;DHT22;8446;50.998;6.250;2023-07-09T01:51:58;18.40;98.70
16666;DHT22;8446;50.998;6.250;2023-07-09T01:54:28;18.40;98.60
16666;DHT22;8446;50.998;6.250;2023-07-09T01:57:03;18.40;98.50
16666;DHT22;8446;50.998;6.250;2023-07-09T01:59:38;18.60;98.40
16666;DHT22;8446;50.998;6.250;2023-07-09T02:02:06;18.60;98.50
16666;DHT22;8446;50.998;6.250;2023-07-09T02:04:33;18.60;98.50
16666;DHT22;8446;50.998;6.250;2023-07-09T02:07:00;18.50;98.80
16666;DHT22;8446;50.998;6.250;2023-07-09T02:09:28;18.60;98.60
16666;DHT22;8446;50.998;6.250;2023-07-09T02:11:55;18.50;98.80
16666;DHT22;8446;50.998;6.250;2023-07-09T02:14:21;18.40;99.10
16666;DHT22;8446;50.998;6.250;2023-07-09T02:16:48;18.30;99.20
16666;DHT22;8446;50.998;6.250;2023-07-09T02:19:16;18.10;99.50
16666;DHT22;8446;50.998;6.250;2023-07-09T02:21:43;18.30;99.00
16666;DHT22;8446;50.998;6.250;2023-07-09T02:24:09;18.10;99.30
16666;DHT22;8446;50.998;6.250;2023-07-09T02:26:37;18.10;99.50
16666;DHT22;8446;50.998;6.250;2023-07-09T02:29:04;18.00;99.80
16666;DHT22;8446;50.998;6.250;2023-07-09T02:31:31;18.10;99.20
16666;DHT22;8446;50.998;6.250;2023-07-09T02:33:59;18.10;99.00
16666;DHT22;8446;50.998;6.250;2023-07-09T02:36:26;18.00;99.10
16666;DHT22;8446;50.998;6.250;2023-07-09T02:38:53;17.90;99.10
16666;DHT22;8446;50.998;6.250;2023-07-09T02:41:19;17.90;99.00
16666;DHT22;8446;50.998;6.250;2023-07-09T02:43:47;18.00;99.20
16666;DHT22;8446;50.998;6.250;2023-07-09T02:46:14;17.90;99.40
16666;DHT22;8446;50.998;6.250;2023-07-09T02:48:41;17.90;99.50
16666;DHT22;8446;50.998;6.250;2023-07-09T02:51:08;17.90;99.30
16666;DHT22;8446;50.998;6.250;2023-07-09T02:53:34;17.70;99.70
16666;DHT22;8446;50.998;6.250;2023-07-09T02:56:01;17.90;99.70
16666;DHT22;8446;50.998;6.250;2023-07-09T02:58:28;17.90;99.80
16666;DHT22;8446;50.998;6.250;2023-07-09T03:00:56;17.80;99.70
16666;DHT22;8446;50.998;6.250;2023-07-09T03:03:23;17.90;99.70
16666;DHT22;8446;50.998;6.250;2023-07-09T03:05:50;18.10;99.40
16666;DHT22;8446;50.998;6.250;2023-07-09T03:08:16;18.10;99.40
16666;DHT22;8446;50.998;6.250;2023-07-09T03:10:43;18.10;99.80
16666;DHT22;8446;50.998;6.250;2023-07-09T03:13:10;18.00;99.50
16666;DHT22;8446;50.998;6.250;2023-07-09T03:15:37;17.90;99.50
16666;DHT22;8446;50.998;6.250;2023-07-09T03:18:05;18.00;99.60
16666;DHT22;8446;50.998;6.250;2023-07-09T03:20:32;17.80;99.90
16666;DHT22;8446;50.998;6.250;2023-07-09T03:22:58;17.80;99.80
16666;DHT22;8446;50.998;6.250;2023-07-09T03:25:25;17.80;99.80
16666;DHT22;8446;50.998;6.250;2023-07-09T03:27:52;17.80;99.90
16666;DHT22;8446;50.998;6.250;2023-07-09T03:30:19;18.00;99.50
16666;DHT22;8446;50.998;6.250;2023-07-09T03:32:45;17.60;99.50
16666;DHT22;8446;50.998;6.250;2023-07-09T03:35:14;17.90;99.20
16666;DHT22;8446;50.998;6.250;2023-07-09T03:37:41;17.80;99.60
16666;DHT22;8446;50.998;6.250;2023-07-09T03:40:10;17.60;99.70
16666;DHT22;8446;50.998;6.250;2023-07-09T03:42:37;17.70;99.80
16666;DHT22;8446;50.998;6.250;2023-07-09T03:45:05;17.70;99.80
16666;DHT22;8446;50.998;6.250;2023-07-09T03:47:31;17.70;99.90
16666;DHT22;8446;50.998;6.250;2023-07-09T03:49:58;17.80;99.90
16666;DHT22;8446;50.998;6.250;2023-07-09T03:52:26;17.70;99.80
16666;DHT22;8446;50.998;6.250;2023-07-09T03:54:53;17.70;99.80
16666;DHT22;8446;50.998;6.250;2023-07-09T03:57:20;17.80;99.70
16666;DHT22;8446;50.998;6.250;2023-07-09T03:59:47;17.80;99.40
16666;DHT22;8446;50.998;6.250;2023-07-09T04:02:14;17.90;99.60
16666;DHT22;8446;50.998;6.250;2023-07-09T04:04:41;17.80;99.90
16666;DHT22;8446;50.998;6.250;2023-07-09T04:07:07;18.00;99.70
16666;DHT22;8446;50.998;6.250;2023-07-09T04:09:36;17.90;99.70
16666;DHT22;8446;50.998;6.250;2023-07-09T04:12:03;17.90;99.90
16666;DHT22;8446;50.998;6.250;2023-07-09T04:14:30;17.80;99.90
16666;DHT22;8446;50.998;6.250;2023-07-09T04:16:57;17.90;99.90
16666;DHT22;8446;50.998;6.250;2023-07-09T04:19:24;18.10;99.90
16666;DHT22;8446;50.998;6.250;2023-07-09T04:21:50;18.10;99.90
16666;DHT22;8446;50.998;6.250;2023-07-09T04:24:19;18.20;99.70
16666;DHT22;8446;50.998;6.250;2023-07-09T04:26:47;18.20;99.60
16666;DHT22;8446;50.998;6.250;2023-07-09T04:29:14;18.10;99.90
16666;DHT22;8446;50.998;6.250;2023-07-09T04:31:41;18.10;99.90
16666;DHT22;8446;50.998;6.250;2023-07-09T04:34:08;18.10;99.90
16666;DHT22;8446;50.998;6.250;2023-07-09T04:36:35;18.20;99.90
16666;DHT22;8446;50.998;6.250;2023-07-09T04:39:02;18.30;99.90
16666;DHT22;8446;50.998;6.250;2023-07-09T04:41:29;18.70;99.50
16666;DHT22;8446;50.998;6.250;2023-07-09T04:43:57;18.60;99.90
16666;DHT22;8446;50.998;6.250;2023-07-09T04:46:24;18.70;99.90
16666;DHT22;8446;50.998;6.250;2023-07-09T04:48:51;18.70;99.90
16666;DHT22;8446;50.998;6.250;2023-07-09T04:51:18;19.10;99.10
16666;DHT22;8446;50.998;6.250;2023-07-09T04:53:44;19.00;99.40
16666;DHT22;8446;50.998;6.250;2023-07-09T04:56:11;19.00;99.60
16666;DHT22;8446;50.998;6.250;2023-07-09T04:58:38;19.20;99.40
16666;DHT22;8446;50.998;6.250;2023-07-09T05:01:06;19.20;99.70
16666;DHT22;8446;50.998;6.250;2023-07-09T05:03:33;19.30;99.30
16666;DHT22;8446;50.998;6.250;2023-07-09T05:06:00;19.50;99.20
16666;DHT22;8446;50.998;6.250;2023-07-09T05:08:26;19.50;98.80
16666;DHT22;8446;50.998;6.250;2023-07-09T05:10:54;19.70;98.60
16666;DHT22;8446;50.998;6.250;2023-07-09T05:13:21;19.80;97.80
16666;DHT22;8446;50.998;6.250;2023-07-09T05:15:49;19.90;98.20
16666;DHT22;8446;50.998;6.250;2023-07-09T05:18:17;19.90;98.20
16666;DHT22;8446;50.998;6.250;2023-07-09T05:20:46;19.90;98.50
16666;DHT22;8446;50.998;6.250;2023-07-09T05:23:12;20.10;98.00
16666;DHT22;8446;50.998;6.250;2023-07-09T05:25:39;20.20;97.60
16666;DHT22;8446;50.998;6.250;2023-07-09T05:28:06;20.40;97.30
16666;DHT22;8446;50.998;6.250;2023-07-09T05:30:33;20.70;96.60
16666;DHT22;8446;50.998;6.250;2023-07-09T05:33:00;20.60;96.60
16666;DHT22;8446;50.998;6.250;2023-07-09T05:35:28;20.80;95.60
16666;DHT22;8446;50.998;6.250;2023-07-09T05:37:55;21.00;95.20
16666;DHT22;8446;50.998;6.250;2023-07-09T05:40:22;21.10;94.90
16666;DHT22;8446;50.998;6.250;2023-07-09T05:42:49;21.10;94.90
16666;DHT22;8446;50.998;6.250;2023-07-09T05:45:16;21.20;95.20
16666;DHT22;8446;50.998;6.250;2023-07-09T05:47:43;21.30;94.30
16666;DHT22;8446;50.998;6.250;2023-07-09T05:50:10;21.50;94.50
16666;DHT22;8446;50.998;6.250;2023-07-09T05:52:38;21.60;94.50
16666;DHT22;8446;50.998;6.250;2023-07-09T05:55:06;21.70;94.30
16666;DHT22;8446;50.998;6.250;2023-07-09T05:57:33;21.70;94.50
16666;DHT22;8446;50.998;6.250;2023-07-09T06:00:00;21.80;94.50
16666;DHT22;8446;50.998;6.250;2023-07-09T06:02:26;21.80;94.80
16666;DHT22;8446;50.998;6.250;2023-07-09T06:04:53;21.90;94.50
16666;DHT22;8446;50.998;6.250;2023-07-09T06:07:21;21.90;94.90
16666;DHT22;8446;50.998;6.250;2023-07-09T06:09:50;22.00;94.40
16666;DHT22;8446;50.998;6.250;2023-07-09T06:12:17;22.10;94.80
16666;DHT22;8446;50.998;6.250;2023-07-09T06:14:45;22.60;93.30
16666;DHT22;8446;50.998;6.250;2023-07-09T06:17:12;22.70;92.60
16666;DHT22;8446;50.998;6.250;2023-07-09T06:19:39;22.80;92.80
16666;DHT22;8446;50.998;6.250;2023-07-09T06:22:06;23.00;92.90
16666;DHT22;8446;50.998;6.250;2023-07-09T06:24:33;23.10;92.60
16666;DHT22;8446;50.998;6.250;2023-07-09T06:27:01;23.20;92.30
16666;DHT22;8446;50.998;6.250;2023-07-09T06:29:28;23.20;92.40
16666;DHT22;8446;50.998;6.250;2023-07-09T06:31:55;23.40;91.90
16666;DHT22;8446;50.998;6.250;2023-07-09T06:34:22;23.50;92.10
16666;DHT22;8446;50.998;6.250;2023-07-09T06:36:48;23.70;91.50
16666;DHT22;8446;50.998;6.250;2023-07-09T06:39:15;23.80;91.40
16666;DHT22;8446;50.998;6.250;2023-07-09T06:41:44;23.90;91.10
16666;DHT22;8446;50.998;6.250;2023-07-09T06:44:13;24.00;91.80
16666;DHT22;8446;50.998;6.250;2023-07-09T06:46:39;24.10;91.50
16666;DHT22;8446;50.998;6.250;2023-07-09T06:49:06;24.40;90.30
16666;DHT22;8446;50.998;6.250;2023-07-09T06:51:33;24.40;90.40
16666;DHT22;8446;50.998;6.250;2023-07-09T06:54:00;24.60;90.40
16666;DHT22;8446;50.998;6.250;2023-07-09T06:56:27;24.60;90.80
16666;DHT22;8446;50.998;6.250;2023-07-09T06:58:54;24.90;89.70
16666;DHT22;8446;50.998;6.250;2023-07-09T07:01:23;25.10;89.50
16666;DHT22;8446;50.998;6.250;2023-07-09T07:03:49;25.20;87.70
16666;DHT22;8446;50.998;6.250;2023-07-09T07:06:16;25.40;88.70
16666;DHT22;8446;50.998;6.250;2023-07-09T07:08:43;25.40;86.90
16666;DHT22;8446;50.998;6.250;2023-07-09T07:11:10;25.50;87.80
16666;DHT22;8446;50.998;6.250;2023-07-09T07:13:38;25.60;90.00
16666;DHT22;8446;50.998;6.250;2023-07-09T07:16:07;25.70;87.70
16666;DHT22;8446;50.998;6.250;2023-07-09T07:18:36;25.80;86.50
16666;DHT22;8446;50.998;6.250;2023-07-09T07:21:03;25.80;87.90
16666;DHT22;8446;50.998;6.250;2023-07-09T07:23:30;25.60;90.10
16666;DHT22;8446;50.998;6.250;2023-07-09T07:25:57;25.90;87.60
16666;DHT22;8446;50.998;6.250;2023-07-09T07:28:24;26.30;86.80
16666;DHT22;8446;50.998;6.250;2023-07-09T07:31:01;26.30;87.10
16666;DHT22;8446;50.998;6.250;2023-07-09T07:33:28;26.30;88.50
16666;DHT22;8446;50.998;6.250;2023-07-09T07:35:56;26.60;86.40
16666;DHT22;8446;50.998;6.250;2023-07-09T07:38:23;26.90;84.50
16666;DHT22;8446;50.998;6.250;2023-07-09T07:40:50;26.60;88.00
16666;DHT22;8446;50.998;6.250;2023-07-09T07:43:17;26.90;87.30
16666;DHT22;8446;50.998;6.250;2023-07-09T07:45:44;27.00;87.80
16666;DHT22;8446;50.998;6.250;2023-07-09T07:48:11;26.90;88.00
16666;DHT22;8446;50.998;6.250;2023-07-09T07:50:37;27.20;84.80
16666;DHT22;8446;50.998;6.250;2023-07-09T07:53:06;27.40;83.80
16666;DHT22;8446;50.998;6.250;2023-07-09T07:55:33;27.60;85.00
16666;DHT22;8446;50.998;6.250;2023-07-09T07:58:01;27.50;84.50
16666;DHT22;8446;50.998;6.250;2023-07-09T08:00:29;27.60;83.60
16666;DHT22;8446;50.998;6.250;2023-07-09T08:02:56;27.90;84.10
16666;DHT22;8446;50.998;6.250;2023-07-09T08:05:23;27.80;82.70
16666;DHT22;8446;50.998;6.250;2023-07-09T08:07:50;28.10;81.90
16666;DHT22;8446;50.998;6.250;2023-07-09T08:10:18;28.20;80.50
16666;DHT22;8446;50.998;6.250;2023-07-09T08:12:45;28.20;83.10
16666;DHT22;8446;50.998;6.250;2023-07-09T08:15:12;28.20;85.80
16666;DHT22;8446;50.998;6.250;2023-07-09T08:17:39;28.30;87.20
16666;DHT22;8446;50.998;6.250;2023-07-09T08:20:07;28.60;79.50
16666;DHT22;8446;50.998;6.250;2023-07-09T08:22:34;28.90;81.20
16666;DHT22;8446;50.998;6.250;2023-07-09T08:25:00;28.90;79.60
16666;DHT22;8446;50.998;6.250;2023-07-09T08:27:29;28.90;80.60
16666;DHT22;8446;50.998;6.250;2023-07-09T08:29:55;29.20;80.80
16666;DHT22;8446;50.998;6.250;2023-07-09T08:32:22;29.00;78.90
16666;DHT22;8446;50.998;6.250;2023-07-09T08:34:49;29.40;78.30
16666;DHT22;8446;50.998;6.250;2023-07-09T08:37:16;29.20;81.60
16666;DHT22;8446;50.998;6.250;2023-07-09T08:39:43;29.40;82.40
16666;DHT22;8446;50.998;6.250;2023-07-09T08:42:11;29.90;77.80
16666;DHT22;8446;50.998;6.250;2023-07-09T08:45:00;30.10;77.60
16666;DHT22;8446;50.998;6.250;2023-07-09T08:47:33;30.30;76.90
16666;DHT22;8446;50.998;6.250;2023-07-09T08:50:08;30.00;80.10
16666;DHT22;8446;50.998;6.250;2023-07-09T08:52:38;30.30;74.70
16666;DHT22;8446;50.998;6.250;2023-07-09T08:55:08;30.50;74.70
16666;DHT22;8446;50.998;6.250;2023-07-09T08:57:38;30.70;71.60
16666;DHT22;8446;50.998;6.250;2023-07-09T09:00:15;30.30;77.80
16666;DHT22;8446;50.998;6.250;2023-07-09T09:02:48;30.30;83.10
16666;DHT22;8446;50.998;6.250;2023-07-09T09:05:19;30.80;72.60
16666;DHT22;8446;50.998;6.250;2023-07-09T09:07:51;30.80;74.30
16666;DHT22;8446;50.998;6.250;2023-07-09T09:10:29;30.60;77.90
16666;DHT22;8446;50.998;6.250;2023-07-09T09:13:05;30.90;73.90
16666;DHT22;8446;50.998;6.250;2023-07-09T09:15:34;31.00;76.10
16666;DHT22;8446;50.998;6.250;2023-07-09T09:18:19;31.40;75.80
16666;DHT22;8446;50.998;6.250;2023-07-09T09:20:51;31.50;70.50
16666;DHT22;8446;50.998;6.250;2023-07-09T09:23:19;31.40;68.40
16666;DHT22;8446;50.998;6.250;2023-07-09T09:25:52;31.70;67.00
16666;DHT22;8446;50.998;6.250;2023-07-09T09:28:19;32.00;69.70
16666;DHT22;8446;50.998;6.250;2023-07-09T09:30:49;31.70;69.70
16666;DHT22;8446;50.998;6.250;2023-07-09T09:33:17;31.70;70.10
16666;DHT22;8446;50.998;6.250;2023-07-09T09:35:45;31.60;70.80
16666;DHT22;8446;50.998;6.250;2023-07-09T09:38:16;32.00;69.60
16666;DHT22;8446;50.998;6.250;2023-07-09T09:40:43;31.80;71.00
16666;DHT22;8446;50.998;6.250;2023-07-09T09:43:13;31.70;69.40
16666;DHT22;8446;50.998;6.250;2023-07-09T09:45:41;31.50;68.60
16666;DHT22;8446;50.998;6.250;2023-07-09T09:48:17;31.80;66.30
16666;DHT22;8446;50.998;6.250;2023-07-09T09:50:45;32.10;66.00
16666;DHT22;8446;50.998;6.250;2023-07-09T09:53:19;32.00;66.80
16666;DHT22;8446;50.998;6.250;2023-07-09T09:55:47;32.90;63.90
16666;DHT22;8446;50.998;6.250;2023-07-09T09:58:15;33.00;63.40
16666;DHT22;8446;50.998;6.250;2023-07-09T10:00:48;33.30;59.80
16666;DHT22;8446;50.998;6.250;2023-07-09T10:03:17;32.80;60.90
16666;DHT22;8446;50.998;6.250;2023-07-09T10:05:48;32.90;65.60
16666;DHT22;8446;50.998;6.250;2023-07-09T10:08:25;33.70;60.90
16666;DHT22;8446;50.998;6.250;2023-07-09T10:11:02;33.70;59.60
16666;DHT22;8446;50.998;6.250;2023-07-09T10:13:37;33.90;59.60
16666;DHT22;8446;50.998;6.250;2023-07-09T10:16:24;34.30;61.50
16666;DHT22;8446;50.998;6.250;2023-07-09T10:19:01;33.50;61.90
16666;DHT22;8446;50.998;6.250;2023-07-09T10:21:37;33.70;61.20
16666;DHT22;8446;50.998;6.250;2023-07-09T10:24:20;33.40;60.20
16666;DHT22;8446;50.998;6.250;2023-07-09T10:26:56;33.20;61.20
16666;DHT22;8446;50.998;6.250;2023-07-09T10:29:40;33.20;65.30
16666;DHT22;8446;50.998;6.250;2023-07-09T10:32:16;33.40;62.50
16666;DHT22;8446;50.998;6.250;2023-07-09T10:34:50;33.30;56.40
16666;DHT22;8446;50.998;6.250;2023-07-09T10:37:49;33.30;61.90
16666;DHT22;8446;50.998;6.250;2023-07-09T10:40:26;34.00;58.60
16666;DHT22;8446;50.998;6.250;2023-07-09T10:42:57;33.70;58.90
16666;DHT22;8446;50.998;6.250;2023-07-09T10:45:28;33.40;58.40
16666;DHT22;8446;50.998;6.250;2023-07-09T10:47:59;33.60;57.70
16666;DHT22;8446;50.998;6.250;2023-07-09T10:50:33;33.80;55.00
16666;DHT22;8446;50.998;6.250;2023-07-09T10:53:05;33.90;52.10
16666;DHT22;8446;50.998;6.250;2023-07-09T10:55:41;33.70;56.20
16666;DHT22;8446;50.998;6.250;2023-07-09T10:58:27;34.00;55.10
16666;DHT22;8446;50.998;6.250;2023-07-09T11:00:57;33.80;55.90
16666;DHT22;8446;50.998;6.250;2023-07-09T11:03:34;33.60;55.70
16666;DHT22;8446;50.998;6.250;2023-07-09T11:06:04;33.70;51.10
16666;DHT22;8446;50.998;6.250;2023-07-09T11:08:35;33.60;56.00
16666;DHT22;8446;50.998;6.250;2023-07-09T11:11:05;33.80;56.80
16666;DHT22;8446;50.998;6.250;2023-07-09T11:13:39;33.70;54.00
16666;DHT22;8446;50.998;6.250;2023-07-09T11:16:08;33.70;53.80
16666;DHT22;8446;50.998;6.250;2023-07-09T11:18:38;33.60;55.50
16666;DHT22;8446;50.998;6.250;2023-07-09T11:21:08;33.90;56.80
16666;DHT22;8446;50.998;6.250;2023-07-09T11:23:45;33.80;53.00
16666;DHT22;8446;50.998;6.250;2023-07-09T11:26:14;33.70;55.40
16666;DHT22;8446;50.998;6.250;2023-07-09T11:28:46;34.00;60.50
16666;DHT22;8446;50.998;6.250;2023-07-09T11:31:20;33.80;57.80
16666;DHT22;8446;50.998;6.250;2023-07-09T11:33:49;33.50;54.30
16666;DHT22;8446;50.998;6.250;2023-07-09T11:36:29;33.50;55.00
16666;DHT22;8446;50.998;6.250;2023-07-09T11:38:56;33.60;56.30
16666;DHT22;8446;50.998;6.250;2023-07-09T11:41:38;33.80;56.60
16666;DHT22;8446;50.998;6.250;2023-07-09T11:44:13;33.70;56.80
16666;DHT22;8446;50.998;6.250;2023-07-09T11:46:52;34.30;54.00
16666;DHT22;8446;50.998;6.250;2023-07-09T11:49:23;34.20;52.50
16666;DHT22;8446;50.998;6.250;2023-07-09T11:51:55;34.20;54.50
16666;DHT22;8446;50.998;6.250;2023-07-09T11:54:24;33.80;51.90
16666;DHT22;8446;50.998;6.250;2023-07-09T11:56:56;33.80;51.60
16666;DHT22;8446;50.998;6.250;2023-07-09T11:59:23;33.40;54.40
16666;DHT22;8446;50.998;6.250;2023-07-09T12:01:51;33.40;55.00
16666;DHT22;8446;50.998;6.250;2023-07-09T12:04:21;33.20;55.10
16666;DHT22;8446;50.998;6.250;2023-07-09T12:06:48;33.20;54.80
16666;DHT22;8446;50.998;6.250;2023-07-09T12:09:20;33.10;55.30
16666;DHT22;8446;50.998;6.250;2023-07-09T12:11:48;33.00;56.50
16666;DHT22;8446;50.998;6.250;2023-07-09T12:14:17;33.30;57.30
16666;DHT22;8446;50.998;6.250;2023-07-09T12:16:46;33.50;54.00
16666;DHT22;8446;50.998;6.250;2023-07-09T12:19:14;33.20;55.20
16666;DHT22;8446;50.998;6.250;2023-07-09T12:21:43;33.10;57.50
16666;DHT22;8446;50.998;6.250;2023-07-09T12:24:25;33.20;57.00
16666;DHT22;8446;50.998;6.250;2023-07-09T12:26:52;33.00;59.90
16666;DHT22;8446;50.998;6.250;2023-07-09T12:29:19;32.80;55.60
16666;DHT22;8446;50.998;6.250;2023-07-09T12:31:46;32.60;57.90
16666;DHT22;8446;50.998;6.250;2023-07-09T12:34:14;32.50;58.70
16666;DHT22;8446;50.998;6.250;2023-07-09T12:36:45;32.30;58.40
16666;DHT22;8446;50.998;6.250;2023-07-09T12:39:13;32.20;59.60
16666;DHT22;8446;50.998;6.250;2023-07-09T12:41:44;31.90;62.40
16666;DHT22;8446;50.998;6.250;2023-07-09T12:44:16;32.00;59.90
16666;DHT22;8446;50.998;6.250;2023-07-09T12:46:43;31.90;60.70
16666;DHT22;8446;50.998;6.250;2023-07-09T12:49:22;31.50;60.80
16666;DHT22;8446;50.998;6.250;2023-07-09T12:51:49;31.50;62.10
16666;DHT22;8446;50.998;6.250;2023-07-09T12:54:18;31.40;63.60
16666;DHT22;8446;50.998;6.250;2023-07-09T12:56:50;30.40;73.20
16666;DHT22;8446;50.998;6.250;2023-07-09T12:59:20;27.80;90.00
16666;DHT22;8446;50.998;6.250;2023-07-09T13:01:55;24.30;92.70
16666;DHT22;8446;50.998;6.250;2023-07-09T13:04:28;23.30;93.70
16666;DHT22;8446;50.998;6.250;2023-07-09T13:06:56;23.20;93.20
16666;DHT22;8446;50.998;6.250;2023-07-09T13:09:26;23.00;94.50
16666;DHT22;8446;50.998;6.250;2023-07-09T13:11:56;22.40;93.30
16666;DHT22;8446;50.998;6.250;2023-07-09T13:14:25;21.00;95.10
16666;DHT22;8446;50.998;6.250;2023-07-09T13:16:52;20.40;96.10
16666;DHT22;8446;50.998;6.250;2023-07-09T13:19:19;21.00;94.90
16666;DHT22;8446;50.998;6.250;2023-07-09T13:21:46;20.80;96.80
16666;DHT22;8446;50.998;6.250;2023-07-09T13:24:17;21.20;96.50
16666;DHT22;8446;50.998;6.250;2023-07-09T13:26:45;20.90;99.90
16666;DHT22;8446;50.998;6.250;2023-07-09T13:29:18;21.30;96.80
16666;DHT22;8446;50.998;6.250;2023-07-09T13:31:46;21.00;97.50
16666;DHT22;8446;50.998;6.250;2023-07-09T13:34:20;21.40;96.20
16666;DHT22;8446;50.998;6.250;2023-07-09T13:36:47;21.50;95.50
16666;DHT22;8446;50.998;6.250;2023-07-09T13:39:15;21.70;94.70
16666;DHT22;8446;50.998;6.250;2023-07-09T13:41:43;21.20;96.90
16666;DHT22;8446;50.998;6.250;2023-07-09T13:44:16;21.10;97.00
16666;DHT22;8446;50.998;6.250;2023-07-09T13:46:44;21.20;96.80
16666;DHT22;8446;50.998;6.250;2023-07-09T13:49:14;21.60;96.20
16666;DHT22;8446;50.998;6.250;2023-07-09T13:51:41;21.60;97.00
16666;DHT22;8446;50.998;6.250;2023-07-09T13:54:16;21.40;98.20
16666;DHT22;8446;50.998;6.250;2023-07-09T13:56:43;21.50;98.90
16666;DHT22;8446;50.998;6.250;2023-07-09T13:59:14;21.60;99.50
16666;DHT22;8446;50.998;6.250;2023-07-09T14:01:41;21.60;99.90
16666;DHT22;8446;50.998;6.250;2023-07-09T14:04:11;21.60;99.90
16666;DHT22;8446;50.998;6.250;2023-07-09T14:06:38;21.80;99.90
16666;DHT22;8446;50.998;6.250;2023-07-09T14:09:06;21.60;99.90
16666;DHT22;8446;50.998;6.250;2023-07-09T14:11:33;21.70;99.90
16666;DHT22;8446;50.998;6.250;2023-07-09T14:14:00;21.90;99.90
16666;DHT22;8446;50.998;6.250;2023-07-09T14:16:27;22.00;99.90
16666;DHT22;8446;50.998;6.250;2023-07-09T14:18:54;22.00;99.90
16666;DHT22;8446;50.998;6.250;2023-07-09T14:21:25;21.80;99.90
16666;DHT22;8446;50.998;6.250;2023-07-09T14:23:52;21.50;99.90
16666;DHT22;8446;50.998;6.250;2023-07-09T14:26:19;21.40;99.90
16666;DHT22;8446;50.998;6.250;2023-07-09T14:28:46;21.30;99.90
16666;DHT22;8446;50.998;6.250;2023-07-09T14:31:20;21.30;99.90
16666;DHT22;8446;50.998;6.250;2023-07-09T14:33:48;21.30;99.90
16666;DHT22;8446;50.998;6.250;2023-07-09T14:36:15;21.30;99.90
16666;DHT22;8446;50.998;6.250;2023-07-09T14:38:43;21.30;99.90
16666;DHT22;8446;50.998;6.250;2023-07-09T14:41:19;21.40;99.90
16666;DHT22;8446;50.998;6.250;2023-07-09T14:43:46;21.40;99.90
16666;DHT22;8446;50.998;6.250;2023-07-09T14:46:13;21.40;99.90
16666;DHT22;8446;50.998;6.250;2023-07-09T14:48:40;21.50;99.90
16666;DHT22;8446;50.998;6.250;2023-07-09T14:51:13;21.60;99.90
16666;DHT22;8446;50.998;6.250;2023-07-09T14:53:42;21.60;99.90
16666;DHT22;8446;50.998;6.250;2023-07-09T14:56:12;21.60;99.90
16666;DHT22;8446;50.998;6.250;2023-07-09T14:58:39;21.70;99.90
16666;DHT22;8446;50.998;6.250;2023-07-09T15:01:10;21.70;99.90
16666;DHT22;8446;50.998;6.250;2023-07-09T15:03:37;21.80;99.90
16666;DHT22;8446;50.998;6.250;2023-07-09T15:06:04;21.80;99.90
16666;DHT22;8446;50.998;6.250;2023-07-09T15:08:31;21.80;99.90
16666;DHT22;8446;50.998;6.250;2023-07-09T15:11:00;21.80;99.90
16666;DHT22;8446;50.998;6.250;2023-07-09T15:13:29;21.80;99.90
16666;DHT22;8446;50.998;6.250;2023-07-09T15:15:57;22.00;99.90
16666;DHT22;8446;50.998;6.250;2023-07-09T15:18:24;22.10;99.90
16666;DHT22;8446;50.998;6.250;2023-07-09T15:20:52;22.10;99.90
16666;DHT22;8446;50.998;6.250;2023-07-09T15:23:20;22.10;99.90
16666;DHT22;8446;50.998;6.250;2023-07-09T15:25:48;22.20;99.90
16666;DHT22;8446;50.998;6.250;2023-07-09T15:28:17;22.20;99.90
16666;DHT22;8446;50.998;6.250;2023-07-09T15:30:44;22.30;99.90
16666;DHT22;8446;50.998;6.250;2023-07-09T15:33:14;22.40;99.90
16666;DHT22;8446;50.998;6.250;2023-07-09T15:35:43;22.40;99.90
16666;DHT22;8446;50.998;6.250;2023-07-09T15:38:28;22.50;99.90
16666;DHT22;8446;50.998;6.250;2023-07-09T15:40:55;22.50;99.90
16666;DHT22;8446;50.998;6.250;2023-07-09T15:43:24;22.60;99.90
16666;DHT22;8446;50.998;6.250;2023-07-09T15:45:53;23.10;99.90
16666;DHT22;8446;50.998;6.250;2023-07-09T15:48:23;23.20;99.90
16666;DHT22;8446;50.998;6.250;2023-07-09T15:50:51;22.90;99.90
16666;DHT22;8446;50.998;6.250;2023-07-09T15:53:19;22.80;99.90
16666;DHT22;8446;50.998;6.250;2023-07-09T15:55:46;22.80;99.90
16666;DHT22;8446;50.998;6.250;2023-07-09T15:58:18;22.90;99.90
16666;DHT22;8446;50.998;6.250;2023-07-09T16:00:48;23.00;99.90